Greenleaf, Wisconsin
Current Conditions -  °F | °C
As of 7:53 AM on Friday 31 Oct 2014 (Local Time) from KGRB Reporting Station
Overcast Overcast  
Wind Chill: 21°   Ceiling: 3800
Heat Index: 34°   Visibility: 10mi
Dew Point: 23°   Wind: 25mph
Humidity: 64%   Direction: 350°N
Pressure: 30.22"   Gusts: 32mph
Location:  44.31°N, 88.1°W
Report Text: KGRB 311253Z 35022G28KT 10SM OVC038 01/M05 A3022 RMK AO2 PK WND 35037/1206 SLP239 T00111050
Loading
Personal Weather Stations






























Interactive Weather Map
Tropical Storm Tracking
New forecast layout! Learn more

10-Day Weather Forecast

Advertisements
Track Severe Weather on mobile